sensor_id;sensor_type;location;lat;lon;timestamp;pressure;altitude;pressure_sealevel;temperature;humidity
19674;BME280;9986;50.610;7.230;2024-02-26T00:06:49;144518.47;;;6.93;100.00
19674;BME280;9986;50.610;7.230;2024-02-26T00:25:32;144552.31;;;7.07;100.00
19674;BME280;9986;50.610;7.230;2024-02-26T00:46:38;144599.92;;;7.26;100.00
19674;BME280;9986;50.610;7.230;2024-02-26T00:51:51;144622.50;;;7.35;100.00
19674;BME280;9986;50.610;7.230;2024-02-26T00:57:04;144623.75;;;7.35;100.00
19674;BME280;9986;50.610;7.230;2024-02-26T01:10:21;144630.03;;;7.38;100.00
19674;BME280;9986;50.610;7.230;2024-02-26T01:31:30;144607.45;;;7.29;100.00
19674;BME280;9986;50.610;7.230;2024-02-26T01:36:40;144566.09;;;7.12;100.00
19674;BME280;9986;50.610;7.230;2024-02-26T01:41:55;144568.61;;;7.13;100.00
19674;BME280;9986;50.610;7.230;2024-02-26T02:00:29;144622.50;;;7.35;100.00
19674;BME280;9986;50.610;7.230;2024-02-26T02:13:36;144571.13;;;7.14;100.00
19674;BME280;9986;50.610;7.230;2024-02-26T02:34:45;144602.42;;;7.27;100.00
19674;BME280;9986;50.610;7.230;2024-02-26T02:42:40;144515.95;;;6.92;100.00
19674;BME280;9986;50.610;7.230;2024-02-26T02:47:54;144520.97;;;6.94;100.00
19674;BME280;9986;50.610;7.230;2024-02-26T02:53:07;144524.77;;;6.96;100.00
19674;BME280;9986;50.610;7.230;2024-02-26T03:27:43;104987.75;;;6.71;100.00
19674;BME280;9986;50.610;7.230;2024-02-26T03:32:56;113717.30;;;6.69;100.00
19674;BME280;9986;50.610;7.230;2024-02-26T03:38:09;89088.41;;;6.72;100.00
19674;BME280;9986;50.610;7.230;2024-02-26T03:43:22;75250.75;;;6.69;100.00
19674;BME280;9986;50.610;7.230;2024-02-26T03:53:56;103813.63;;;6.71;100.00
19674;BME280;9986;50.610;7.230;2024-02-26T04:01:47;96609.78;;;6.71;100.00
19674;BME280;9986;50.610;7.230;2024-02-26T04:15:00;117769.09;;;6.75;100.00
19674;BME280;9986;50.610;7.230;2024-02-26T04:22:54;123836.20;;;6.75;100.00
19674;BME280;9986;50.610;7.230;2024-02-26T04:28:09;135820.73;;;6.70;100.00
19674;BME280;9986;50.610;7.230;2024-02-26T04:33:24;105822.05;;;6.69;100.00
19674;BME280;9986;50.610;7.230;2024-02-26T04:49:27;98610.89;;;6.67;100.00
19674;BME280;9986;50.610;7.230;2024-02-26T04:57:19;102298.36;;;6.68;100.00
19674;BME280;9986;50.610;7.230;2024-02-26T05:05:14;40311.34;;;6.34;100.00
19674;BME280;9986;50.610;7.230;2024-02-26T05:15:47;28494.46;;;6.48;100.00
19674;BME280;9986;50.610;7.230;2024-02-26T05:29:02;34893.45;;;6.45;100.00
19674;BME280;9986;50.610;7.230;2024-02-26T05:36:59;42794.64;;;6.52;100.00
19674;BME280;9986;50.610;7.230;2024-02-26T05:42:07;64106.09;;;6.52;100.00
19674;BME280;9986;50.610;7.230;2024-02-26T05:47:21;58392.80;;;6.39;100.00
19674;BME280;9986;50.610;7.230;2024-02-26T06:05:57;54164.87;;;6.40;100.00
19674;BME280;9986;50.610;7.230;2024-02-26T06:13:48;48391.34;;;6.44;100.00
19674;BME280;9986;50.610;7.230;2024-02-26T06:19:00;43603.77;;;6.35;100.00
19674;BME280;9986;50.610;7.230;2024-02-26T06:37:26;16700.39;;;6.24;100.00
19674;BME280;9986;50.610;7.230;2024-02-26T06:42:43;18992.36;;;6.36;100.00
19674;BME280;9986;50.610;7.230;2024-02-26T06:47:59;21935.82;;;6.35;100.00
19674;BME280;9986;50.610;7.230;2024-02-26T06:58:30;32264.11;;;6.42;100.00
19674;BME280;9986;50.610;7.230;2024-02-26T07:03:41;29799.98;;;6.37;100.00
19674;BME280;9986;50.610;7.230;2024-02-26T07:11:38;24394.86;;;6.43;100.00
19674;BME280;9986;50.610;7.230;2024-02-26T07:16:54;24722.65;;;6.43;100.00
19674;BME280;9986;50.610;7.230;2024-02-26T07:22:08;15724.60;;;6.36;100.00
19674;BME280;9986;50.610;7.230;2024-02-26T07:27:24;13766.45;;;6.40;100.00
19674;BME280;9986;50.610;7.230;2024-02-26T07:32:36;9361.47;;;6.37;100.00
19674;BME280;9986;50.610;7.230;2024-02-26T07:40:32;5615.53;;;6.43;100.00
19674;BME280;9986;50.610;7.230;2024-02-26T07:51:01;2197.88;;;6.44;100.00
19674;BME280;9986;50.610;7.230;2024-02-26T07:59:04;2361.02;;;6.48;100.00
19674;BME280;9986;50.610;7.230;2024-02-26T08:07:01;3338.03;;;6.53;100.00
19674;BME280;9986;50.610;7.230;2024-02-26T08:20:16;-3490.39;;;6.52;100.00
19674;BME280;9986;50.610;7.230;2024-02-26T08:25:31;-402.62;;;6.59;100.00
19674;BME280;9986;50.610;7.230;2024-02-26T08:33:28;1223.90;;;6.62;100.00
19674;BME280;9986;50.610;7.230;2024-02-26T08:43:57;-2515.33;;;6.64;100.00
19674;BME280;9986;50.610;7.230;2024-02-26T08:49:11;-2352.83;;;6.64;100.00
19674;BME280;9986;50.610;7.230;2024-02-26T08:57:08;-7710.63;;;6.58;100.00
19674;BME280;9986;50.610;7.230;2024-02-26T09:07:48;-2027.48;;;6.72;100.00
19674;BME280;9986;50.610;7.230;2024-02-26T09:13:07;-75.57;;;6.83;100.00
19674;BME280;9986;50.610;7.230;2024-02-26T09:24:15;-1376.20;;;6.91;100.00
19674;BME280;9986;50.610;7.230;2024-02-26T09:32:09;5623.94;;;6.91;100.00
19674;BME280;9986;50.610;7.230;2024-02-26T09:37:27;13620.21;;;6.95;100.00
19674;BME280;9986;50.610;7.230;2024-02-26T09:42:42;13624.02;;;7.08;100.00
19674;BME280;9986;50.610;7.230;2024-02-26T09:53:23;12973.82;;;7.19;100.00
19674;BME280;9986;50.610;7.230;2024-02-26T10:01:21;18213.39;;;7.36;100.00
19674;BME280;9986;50.610;7.230;2024-02-26T10:09:15;26740.36;;;7.42;100.00
19674;BME280;9986;50.610;7.230;2024-02-26T10:14:29;35133.25;;;7.58;100.00
19674;BME280;9986;50.610;7.230;2024-02-26T10:27:51;41226.48;;;7.55;100.00
19674;BME280;9986;50.610;7.230;2024-02-26T10:41:03;49998.98;;;7.79;100.00
19674;BME280;9986;50.610;7.230;2024-02-26T10:46:17;34486.59;;;7.76;100.00
19674;BME280;9986;50.610;7.230;2024-02-26T11:05:04;47676.52;;;7.70;100.00
19674;BME280;9986;50.610;7.230;2024-02-26T11:13:01;64769.95;;;7.96;100.00
19674;BME280;9986;50.610;7.230;2024-02-26T11:18:20;71070.84;;;7.81;100.00
19674;BME280;9986;50.610;7.230;2024-02-26T11:26:45;58194.65;;;7.83;100.00
19674;BME280;9986;50.610;7.230;2024-02-26T11:45:51;87624.77;;;8.06;100.00
19674;BME280;9986;50.610;7.230;2024-02-26T12:10:26;47220.84;;;8.16;100.00
19674;BME280;9986;50.610;7.230;2024-02-26T12:32:11;70804.53;;;8.34;100.00
19674;BME280;9986;50.610;7.230;2024-02-26T12:37:20;66160.67;;;8.47;100.00
19674;BME280;9986;50.610;7.230;2024-02-26T12:45:16;95720.34;;;8.39;100.00
19674;BME280;9986;50.610;7.230;2024-02-26T12:50:30;86014.19;;;8.46;100.00
19674;BME280;9986;50.610;7.230;2024-02-26T12:58:21;108198.67;;;8.60;100.00
19674;BME280;9986;50.610;7.230;2024-02-26T13:17:11;83860.23;;;8.60;100.00
19674;BME280;9986;50.610;7.230;2024-02-26T13:25:20;33709.06;;;8.47;100.00
19674;BME280;9986;50.610;7.230;2024-02-26T13:33:12;39483.75;;;8.51;100.00
19674;BME280;9986;50.610;7.230;2024-02-26T13:43:56;64847.30;;;8.62;100.00
19674;BME280;9986;50.610;7.230;2024-02-26T14:00:06;59183.61;;;8.50;100.00
19674;BME280;9986;50.610;7.230;2024-02-26T14:08:12;59012.82;;;8.46;100.00
19674;BME280;9986;50.610;7.230;2024-02-26T14:13:25;60683.14;;;8.55;100.00
19674;BME280;9986;50.610;7.230;2024-02-26T14:18:39;63175.27;;;8.54;100.00
19674;BME280;9986;50.610;7.230;2024-02-26T14:34:51;44444.78;;;8.57;100.00
19674;BME280;9986;50.610;7.230;2024-02-26T14:40:12;17256.91;;;8.06;100.00
19674;BME280;9986;50.610;7.230;2024-02-26T16:08:04;11530.83;;;8.20;100.00
19674;BME280;9986;50.610;7.230;2024-02-26T16:38:47;424.20;;;8.19;100.00
19674;BME280;9986;50.610;7.230;2024-02-26T16:49:35;18080.81;;;8.18;100.00
19674;BME280;9986;50.610;7.230;2024-02-26T16:54:46;15455.87;;;8.09;100.00
19674;BME280;9986;50.610;7.230;2024-02-26T17:04:11;1562.17;;;7.85;100.00
19674;BME280;9986;50.610;7.230;2024-02-26T17:25:40;94.70;;;7.77;100.00
19674;BME280;9986;50.610;7.230;2024-02-26T17:36:41;4333.87;;;7.80;100.00
19674;BME280;9986;50.610;7.230;2024-02-26T17:58:12;6127.65;;;7.73;100.00
19674;BME280;9986;50.610;7.230;2024-02-26T18:03:23;4495.79;;;7.72;100.00
19674;BME280;9986;50.610;7.230;2024-02-26T18:11:20;4822.38;;;7.74;100.00
19674;BME280;9986;50.610;7.230;2024-02-26T18:16:33;3516.96;;;7.70;100.00
19674;BME280;9986;50.610;7.230;2024-02-26T18:21:48;1723.73;;;7.71;100.00
19674;BME280;9986;50.610;7.230;2024-02-26T18:37:47;-1534.55;;;7.69;100.00
19674;BME280;9986;50.610;7.230;2024-02-26T18:42:58;-1697.37;;;7.69;100.00
19674;BME280;9986;50.610;7.230;2024-02-26T19:04:24;-4464.04;;;7.64;100.00
19674;BME280;9986;50.610;7.230;2024-02-26T19:09:37;-5114.61;;;7.63;100.00
19674;BME280;9986;50.610;7.230;2024-02-26T19:30:53;-6090.24;;;7.64;100.00
19674;BME280;9986;50.610;7.230;2024-02-26T19:36:07;-6903.04;;;7.64;100.00
19674;BME280;9986;50.610;7.230;2024-02-26T19:44:00;-6578.00;;;7.66;100.00
19674;BME280;9986;50.610;7.230;2024-02-26T20:02:47;-9340.01;;;7.61;100.00
19674;BME280;9986;50.610;7.230;2024-02-26T20:07:58;-8852.91;;;7.63;100.00
19674;BME280;9986;50.610;7.230;2024-02-26T20:15:56;-7553.12;;;7.63;100.00
19674;BME280;9986;50.610;7.230;2024-02-26T20:21:11;-7878.06;;;7.62;100.00
19674;BME280;9986;50.610;7.230;2024-02-26T20:29:02;-7877.64;;;7.54;100.00
19674;BME280;9986;50.610;7.230;2024-02-26T20:42:28;-7877.29;;;7.47;100.00
19674;BME280;9986;50.610;7.230;2024-02-26T20:47:45;-6577.41;;;7.45;100.00
19674;BME280;9986;50.610;7.230;2024-02-26T20:55:47;-3000.47;;;7.40;100.00
19674;BME280;9986;50.610;7.230;2024-02-26T21:14:28;905.59;;;7.37;100.00
19674;BME280;9986;50.610;7.230;2024-02-26T21:17:01;-722.66;;;7.35;100.00
19674;BME280;9986;50.610;7.230;2024-02-26T21:22:15;7263.26;;;7.38;100.00
19674;BME280;9986;50.610;7.230;2024-02-26T21:30:08;12978.95;;;7.37;100.00
19674;BME280;9986;50.610;7.230;2024-02-26T21:35:21;14777.10;;;7.36;100.00
19674;BME280;9986;50.610;7.230;2024-02-26T21:43:18;14447.18;;;7.27;100.00
19674;BME280;9986;50.610;7.230;2024-02-26T21:56:33;4160.82;;;7.13;100.00
19674;BME280;9986;50.610;7.230;2024-02-26T22:01:46;1066.17;;;7.13;100.00
19674;BME280;9986;50.610;7.230;2024-02-26T22:23:22;11826.89;;;7.07;100.00
19674;BME280;9986;50.610;7.230;2024-02-26T22:31:13;17548.65;;;7.09;100.00
19674;BME280;9986;50.610;7.230;2024-02-26T22:41:43;8234.80;;;7.02;100.00
19674;BME280;9986;50.610;7.230;2024-02-26T22:54:56;3670.04;;;6.99;100.00
19674;BME280;9986;50.610;7.230;2024-02-26T23:27:05;34438.56;;;7.03;100.00
19674;BME280;9986;50.610;7.230;2024-02-26T23:32:19;47450.68;;;7.00;100.00
19674;BME280;9986;50.610;7.230;2024-02-26T23:40:16;64497.93;;;7.04;100.00
19674;BME280;9986;50.610;7.230;2024-02-26T23:50:50;83297.54;;;7.06;100.00
19674;BME280;9986;50.610;7.230;2024-02-26T23:56:03;84460.94;;;7.03;100.00
